createdAt,value
2019-01-25T00:02:04.846Z,4.67
2019-01-25T00:04:40.134Z,8.30
2019-01-25T00:07:14.526Z,6.37
2019-01-25T00:09:49.304Z,5.57
2019-01-25T00:12:23.958Z,5.00
2019-01-25T00:14:58.328Z,5.77
2019-01-25T00:17:33.120Z,5.33
2019-01-25T00:20:09.257Z,5.27
2019-01-25T00:22:44.945Z,4.23
2019-01-25T00:25:20.282Z,5.57
2019-01-25T00:27:55.507Z,4.40
2019-01-25T00:30:33.268Z,4.20
2019-01-25T00:33:07.872Z,6.93
2019-01-25T00:35:43.554Z,5.73
2019-01-25T00:38:18.658Z,5.37
2019-01-25T00:40:55.053Z,5.23
2019-01-25T00:43:30.602Z,6.13
2019-01-25T00:46:09.917Z,5.27
2019-01-25T00:48:53.362Z,4.37
2019-01-25T00:51:27.380Z,4.23
2019-01-25T00:54:04.476Z,4.47
2019-01-25T00:56:43.522Z,4.53
2019-01-25T00:59:22.152Z,4.60
2019-01-25T01:01:59.698Z,6.43
2019-01-25T01:04:40.552Z,4.80
2019-01-25T01:07:22.679Z,6.57
2019-01-25T01:10:00.379Z,7.07
2019-01-25T01:12:37.387Z,5.37
2019-01-25T01:15:14.336Z,5.17
2019-01-25T01:17:56.241Z,4.70
2019-01-25T01:20:35.135Z,5.27
2019-01-25T01:23:10.669Z,6.93
2019-01-25T01:25:49.387Z,6.23
2019-01-25T01:28:28.538Z,4.43
2019-01-25T01:31:04.398Z,3.90
2019-01-25T01:33:41.369Z,4.77
2019-01-25T01:36:17.733Z,5.67
2019-01-25T01:38:52.772Z,5.00
2019-01-25T01:41:27.664Z,5.33
2019-01-25T01:44:12.619Z,6.27
2019-01-25T01:46:46.428Z,5.47
2019-01-25T01:49:21.571Z,6.40
2019-01-25T01:51:56.088Z,7.67
2019-01-25T01:54:39.539Z,7.27
2019-01-25T01:57:14.724Z,6.57
2019-01-25T01:59:54.876Z,8.77
2019-01-25T02:02:29.470Z,6.83
2019-01-25T02:05:04.788Z,9.70
2019-01-25T02:07:39.071Z,7.20
2019-01-25T02:10:20.063Z,8.90
2019-01-25T02:13:01.537Z,6.50
2019-01-25T02:15:37.436Z,6.63
2019-01-25T02:18:11.752Z,8.30
2019-01-25T02:20:45.803Z,6.67
2019-01-25T02:23:20.445Z,7.67
2019-01-25T02:26:08.885Z,5.70
2019-01-25T02:28:56.253Z,5.73
2019-01-25T02:31:34.225Z,5.50
2019-01-25T02:34:11.009Z,8.20
2019-01-25T02:36:45.728Z,6.60
2019-01-25T02:39:20.571Z,7.80
2019-01-25T02:41:55.068Z,7.80
2019-01-25T02:44:50.595Z,7.10
2019-01-25T02:47:29.003Z,11.03
2019-01-25T02:50:05.577Z,10.27
2019-01-25T02:52:40.497Z,11.07
2019-01-25T02:55:17.680Z,11.30
2019-01-25T02:57:52.954Z,7.57
2019-01-25T03:00:28.632Z,9.67
2019-01-25T03:03:04.124Z,7.43
2019-01-25T03:05:40.987Z,8.43
2019-01-25T03:08:16.614Z,8.87
2019-01-25T03:10:52.294Z,9.43
2019-01-25T03:13:32.081Z,8.77
2019-01-25T03:16:14.045Z,10.57
2019-01-25T03:18:52.325Z,10.10
2019-01-25T03:21:29.007Z,10.03
2019-01-25T03:24:05.889Z,12.47
2019-01-25T03:26:43.337Z,13.07
2019-01-25T03:29:41.805Z,12.47
2019-01-25T03:32:40.568Z,13.80
2019-01-25T03:35:21.759Z,14.30
2019-01-25T03:38:01.562Z,11.27
2019-01-25T03:40:43.616Z,13.13
2019-01-25T03:43:34.140Z,11.70
2019-01-25T03:46:08.460Z,11.77
2019-01-25T03:48:44.069Z,12.00
2019-01-25T03:51:27.138Z,14.53
2019-01-25T03:54:02.351Z,13.37
2019-01-25T03:56:42.449Z,12.70
2019-01-25T03:59:17.382Z,11.93
2019-01-25T04:01:51.834Z,13.50
2019-01-25T04:04:27.339Z,11.90
2019-01-25T04:07:04.240Z,11.23
2019-01-25T04:09:42.208Z,15.07
2019-01-25T04:12:20.017Z,13.83
2019-01-25T04:14:57.219Z,14.97
2019-01-25T04:17:42.654Z,19.53
2019-01-25T04:20:32.239Z,18.43
2019-01-25T04:23:08.571Z,19.07
2019-01-25T04:25:56.478Z,18.23
2019-01-25T04:28:34.688Z,15.03
2019-01-25T04:31:13.509Z,13.27
2019-01-25T04:33:49.141Z,12.77
2019-01-25T04:36:25.435Z,13.43
2019-01-25T04:39:07.720Z,13.20
2019-01-25T04:41:50.757Z,13.40
2019-01-25T04:44:36.332Z,14.00
2019-01-25T04:47:13.373Z,13.33
2019-01-25T04:49:47.933Z,13.70
2019-01-25T04:52:28.096Z,12.37
2019-01-25T04:55:05.546Z,12.47
2019-01-25T04:57:41.839Z,15.03
2019-01-25T05:00:32.359Z,12.87
2019-01-25T05:03:21.438Z,14.47
2019-01-25T05:05:56.614Z,13.10
2019-01-25T05:08:31.355Z,14.33
2019-01-25T05:11:06.876Z,16.07
2019-01-25T05:13:43.177Z,12.67
2019-01-25T05:16:22.894Z,14.27
2019-01-25T05:19:01.373Z,13.57
2019-01-25T05:21:38.330Z,12.90
2019-01-25T05:24:22.717Z,16.43
2019-01-25T05:27:30.740Z,15.63
2019-01-25T05:30:09.276Z,17.83
2019-01-25T05:33:06.145Z,13.73
2019-01-25T05:35:40.550Z,14.40
2019-01-25T05:38:17.360Z,17.03
2019-01-25T05:40:54.363Z,15.93
2019-01-25T05:43:48.940Z,13.63
2019-01-25T05:46:27.866Z,15.30
2019-01-25T05:49:08.366Z,13.43
2019-01-25T05:51:55.969Z,14.57
2019-01-25T05:54:33.124Z,16.23
2019-01-25T05:57:10.495Z,14.37
2019-01-25T05:59:47.940Z,13.00
2019-01-25T06:06:25.893Z,13.50
2019-01-25T06:09:01.083Z,14.00
2019-01-25T06:11:45.556Z,13.73
2019-01-25T06:14:27.708Z,11.93
2019-01-25T06:17:08.322Z,13.37
2019-01-25T06:19:45.980Z,12.37
2019-01-25T06:22:25.711Z,14.10
2019-01-25T06:25:04.010Z,13.63
2019-01-25T06:27:45.758Z,15.40
2019-01-25T06:30:45.700Z,13.13
2019-01-25T06:33:28.449Z,11.77
2019-01-25T06:36:05.697Z,15.53
2019-01-25T06:38:42.437Z,13.73
2019-01-25T06:41:19.497Z,13.63
2019-01-25T06:43:58.097Z,15.80
2019-01-25T06:46:41.656Z,12.70
2019-01-25T06:49:19.228Z,12.57
2019-01-25T06:51:54.422Z,13.00
2019-01-25T06:54:30.465Z,12.47
2019-01-25T06:57:25.704Z,10.73
2019-01-25T07:00:02.649Z,11.47
2019-01-25T07:02:41.810Z,10.73
2019-01-25T07:05:18.219Z,11.83
2019-01-25T07:08:14.018Z,10.53
2019-01-25T07:10:53.689Z,10.47
2019-01-25T07:13:33.248Z,10.00
2019-01-25T07:16:12.890Z,9.37
2019-01-25T07:19:00.982Z,8.77
2019-01-25T07:21:35.835Z,8.37
2019-01-25T07:24:13.324Z,8.63
2019-01-25T07:26:57.090Z,8.17
2019-01-25T07:29:46.525Z,11.17
2019-01-25T07:32:29.407Z,9.93
2019-01-25T07:35:10.982Z,10.03
2019-01-25T07:37:48.025Z,11.47
2019-01-25T07:40:27.049Z,11.83
2019-01-25T07:43:09.930Z,11.83
2019-01-25T07:45:45.499Z,11.47
2019-01-25T07:48:23.718Z,9.87
2019-01-25T07:51:00.569Z,8.33
2019-01-25T07:53:39.653Z,10.93
2019-01-25T07:56:21.930Z,10.07
2019-01-25T07:58:59.611Z,9.40
2019-01-25T08:01:37.961Z,9.03
2019-01-25T08:04:21.182Z,8.73
2019-01-25T08:07:00.213Z,8.57
2019-01-25T08:09:45.327Z,9.77
2019-01-25T08:12:26.127Z,8.97
2019-01-25T08:15:03.685Z,8.07
2019-01-25T08:17:43.535Z,9.77
2019-01-25T08:20:34.076Z,9.20
2019-01-25T08:23:14.865Z,8.30
2019-01-25T08:26:07.338Z,9.27
2019-01-25T08:28:44.988Z,9.23
2019-01-25T08:31:20.409Z,9.60
2019-01-25T08:33:58.631Z,8.23
2019-01-25T08:36:33.532Z,10.43
2019-01-25T08:39:11.200Z,8.20
2019-01-25T08:41:46.117Z,9.40
2019-01-25T08:44:21.570Z,8.90
2019-01-25T08:46:58.439Z,9.20
2019-01-25T08:49:35.639Z,10.77
2019-01-25T08:52:17.634Z,10.67
2019-01-25T08:55:10.200Z,9.23
2019-01-25T08:57:44.854Z,9.13
2019-01-25T09:00:22.284Z,8.87
2019-01-25T09:03:02.525Z,8.53
2019-01-25T09:05:40.179Z,11.97
2019-01-25T09:08:16.324Z,9.07
2019-01-25T09:10:51.338Z,9.63
2019-01-25T09:13:31.588Z,11.60
2019-01-25T09:16:06.514Z,9.63
2019-01-25T09:18:44.066Z,11.77
2019-01-25T09:21:20.014Z,9.93
2019-01-25T09:23:58.826Z,9.27
2019-01-25T09:26:33.914Z,9.60
2019-01-25T09:29:09.475Z,8.93
2019-01-25T09:31:46.805Z,11.60
2019-01-25T09:34:23.088Z,11.73
2019-01-25T09:36:58.336Z,10.60
2019-01-25T09:39:33.591Z,13.07
2019-01-25T09:42:11.845Z,12.20
2019-01-25T09:44:59.155Z,13.07
2019-01-25T09:47:35.610Z,11.77
2019-01-25T09:50:11.412Z,11.80
2019-01-25T09:52:46.512Z,10.63
2019-01-25T09:55:25.136Z,10.03
2019-01-25T09:58:00.368Z,12.67
2019-01-25T10:00:55.248Z,10.83
2019-01-25T10:03:37.059Z,10.33
2019-01-25T10:06:11.548Z,9.77
2019-01-25T10:08:47.381Z,11.07
2019-01-25T10:11:22.431Z,10.50
2019-01-25T10:14:02.204Z,11.60
2019-01-25T10:16:38.760Z,11.40
2019-01-25T10:19:19.467Z,10.30
2019-01-25T10:21:58.726Z,9.90
2019-01-25T10:24:33.961Z,11.53
2019-01-25T10:27:10.016Z,11.80
2019-01-25T10:29:46.857Z,10.77
2019-01-25T10:32:22.094Z,10.50
2019-01-25T10:34:57.237Z,10.90
2019-01-25T10:37:32.637Z,9.07
2019-01-25T10:40:10.171Z,10.80
2019-01-25T10:42:52.984Z,11.53
2019-01-25T10:45:32.262Z,9.93
2019-01-25T10:48:08.653Z,11.17
2019-01-25T10:50:47.784Z,12.90
2019-01-25T10:53:23.100Z,10.70
2019-01-25T10:55:57.753Z,10.33
2019-01-25T10:58:33.193Z,10.70
2019-01-25T11:01:09.770Z,10.73
2019-01-25T11:03:46.712Z,11.80
2019-01-25T11:06:25.293Z,10.87
2019-01-25T11:09:03.222Z,11.53
2019-01-25T11:11:40.934Z,12.73
2019-01-25T11:14:16.976Z,13.93
2019-01-25T11:16:55.836Z,10.50
2019-01-25T11:19:32.606Z,12.43
2019-01-25T11:22:07.693Z,12.17
2019-01-25T11:24:42.305Z,12.43
2019-01-25T11:27:21.719Z,11.10
2019-01-25T11:29:56.165Z,12.10
2019-01-25T11:32:31.407Z,12.40
2019-01-25T11:35:08.331Z,11.97
2019-01-25T11:37:43.943Z,11.80
2019-01-25T11:40:23.540Z,12.37
2019-01-25T11:43:00.239Z,12.73
2019-01-25T11:45:36.370Z,12.43
2019-01-25T11:48:14.679Z,12.50
2019-01-25T11:50:49.889Z,11.63
2019-01-25T11:53:25.592Z,11.93
2019-01-25T11:56:00.831Z,12.17
2019-01-25T11:58:38.712Z,12.83
2019-01-25T12:01:16.795Z,13.20
2019-01-25T12:03:52.128Z,13.03
2019-01-25T12:06:29.513Z,13.33
2019-01-25T12:09:07.845Z,12.03
2019-01-25T12:11:42.686Z,11.80
2019-01-25T12:14:18.706Z,11.37
2019-01-25T12:16:53.614Z,13.20
2019-01-25T12:19:28.314Z,11.60
2019-01-25T12:22:02.738Z,14.17
2019-01-25T12:24:40.786Z,12.67
2019-01-25T12:27:16.225Z,12.23
2019-01-25T12:29:51.597Z,13.40
2019-01-25T12:32:26.207Z,12.90
2019-01-25T12:35:01.784Z,12.43
2019-01-25T12:37:41.796Z,12.13
2019-01-25T12:40:17.157Z,12.73
2019-01-25T12:42:52.454Z,12.23
2019-01-25T12:45:30.805Z,12.07
2019-01-25T12:48:05.332Z,15.07
2019-01-25T12:50:58.315Z,13.27
2019-01-25T12:53:35.679Z,12.07
2019-01-25T12:56:11.463Z,15.33
2019-01-25T12:58:45.767Z,12.80
2019-01-25T13:01:21.559Z,13.30
2019-01-25T13:04:00.508Z,15.87
2019-01-25T13:06:35.736Z,12.40
2019-01-25T13:09:17.554Z,12.07
2019-01-25T13:11:54.474Z,12.77
2019-01-25T13:14:29.401Z,11.60
2019-01-25T13:17:03.703Z,13.27
2019-01-25T13:19:38.690Z,13.13
2019-01-25T13:22:15.558Z,12.47
2019-01-25T13:24:49.819Z,13.53
2019-01-25T13:27:26.622Z,13.10
2019-01-25T13:30:02.382Z,12.60
2019-01-25T13:32:38.794Z,12.10
2019-01-25T13:35:16.294Z,11.87
2019-01-25T13:37:53.371Z,13.13
2019-01-25T13:40:31.457Z,12.23
2019-01-25T13:43:06.830Z,12.23
2019-01-25T13:45:41.189Z,15.00
2019-01-25T13:48:16.567Z,13.77
2019-01-25T13:50:54.731Z,14.53
2019-01-25T13:53:32.569Z,14.80
2019-01-25T13:56:07.161Z,12.93
2019-01-25T13:58:41.924Z,13.67
2019-01-25T14:01:19.272Z,12.67
2019-01-25T14:03:56.971Z,12.33
2019-01-25T14:06:32.599Z,14.77
2019-01-25T14:09:11.093Z,14.10
2019-01-25T14:11:46.772Z,14.83
2019-01-25T14:14:21.420Z,14.97
2019-01-25T14:16:56.159Z,14.00
2019-01-25T14:19:33.415Z,12.97
2019-01-25T14:22:08.892Z,13.70
2019-01-25T14:24:43.110Z,17.77
2019-01-25T14:27:18.608Z,13.83
2019-01-25T14:29:53.893Z,19.87
2019-01-25T14:32:31.353Z,14.97
2019-01-25T14:35:05.790Z,16.40
2019-01-25T14:37:41.258Z,14.77
2019-01-25T14:40:17.540Z,14.50
2019-01-25T14:42:54.077Z,17.23
2019-01-25T14:45:29.452Z,14.97
2019-01-25T14:48:03.974Z,14.43
2019-01-25T14:50:38.432Z,17.07
2019-01-25T14:53:14.622Z,14.40
2019-01-25T14:55:51.968Z,16.10
2019-01-25T14:58:29.141Z,14.60
2019-01-25T15:01:05.198Z,15.60
2019-01-25T15:03:40.552Z,16.17
2019-01-25T15:06:17.244Z,13.30
2019-01-25T15:08:54.036Z,14.87
2019-01-25T15:11:28.519Z,15.00
2019-01-25T15:14:03.250Z,13.70
2019-01-25T15:16:41.033Z,14.47
2019-01-25T15:19:15.735Z,13.47
2019-01-25T15:21:53.308Z,12.23
2019-01-25T15:24:30.398Z,14.20
2019-01-25T15:27:05.531Z,15.67
2019-01-25T15:29:40.686Z,14.93
2019-01-25T15:32:16.946Z,15.87
2019-01-25T15:34:52.292Z,14.10
2019-01-25T15:37:28.746Z,18.67
2019-01-25T15:40:05.174Z,18.57
2019-01-25T15:42:44.586Z,18.33
2019-01-25T15:45:22.470Z,19.17
2019-01-25T15:47:57.236Z,18.10
2019-01-25T15:50:36.789Z,17.33
2019-01-25T15:53:11.528Z,17.60
2019-01-25T15:55:48.832Z,15.03
2019-01-25T15:58:35.321Z,15.73
2019-01-25T16:01:12.983Z,16.80
2019-01-25T16:03:48.310Z,15.77
2019-01-25T16:06:22.963Z,16.97
2019-01-25T16:08:58.745Z,17.80
2019-01-25T16:11:38.741Z,18.00
2019-01-25T16:14:27.952Z,19.63
2019-01-25T16:17:23.574Z,20.10
2019-01-25T16:20:03.442Z,18.13
2019-01-25T16:22:39.941Z,17.03
2019-01-25T16:25:19.458Z,17.40
2019-01-25T16:27:58.130Z,19.37
2019-01-25T16:30:37.102Z,19.87
2019-01-25T16:33:12.223Z,18.90
2019-01-25T16:36:47.236Z,20.03
2019-01-25T16:39:27.734Z,16.87
2019-01-25T16:42:04.662Z,18.77
2019-01-25T16:44:43.147Z,20.23
2019-01-25T16:47:20.973Z,16.47
2019-01-25T16:50:07.952Z,18.47
2019-01-25T16:53:11.639Z,15.90
2019-01-25T16:56:00.161Z,104.00
2019-01-25T16:58:47.446Z,43.57
2019-01-25T17:01:34.031Z,35.50
2019-01-25T17:04:12.035Z,28.60
2019-01-25T17:06:53.126Z,35.03
2019-01-25T17:09:30.692Z,36.20
2019-01-25T17:15:12.945Z,18.10
2019-01-25T17:17:55.426Z,62.53
2019-01-25T17:20:34.698Z,50.00
2019-01-25T17:23:11.209Z,18.80
2019-01-25T17:25:47.065Z,20.43
2019-01-25T17:28:28.945Z,46.90
2019-01-25T17:31:16.447Z,39.27
2019-01-25T17:34:06.238Z,20.60
2019-01-25T17:37:22.618Z,73.63
2019-01-25T17:40:01.701Z,96.60
2019-01-25T17:42:38.226Z,87.63
2019-01-25T17:45:15.031Z,67.37
2019-01-25T17:47:51.058Z,28.70
2019-01-25T17:50:28.895Z,36.83
2019-01-25T17:53:07.987Z,28.13
2019-01-25T17:55:44.411Z,21.77
2019-01-25T17:58:18.859Z,20.13
2019-01-25T18:00:58.456Z,43.43
2019-01-25T18:03:36.846Z,39.30
2019-01-25T18:06:21.586Z,37.57
2019-01-25T18:08:57.215Z,66.13
2019-01-25T18:11:33.366Z,86.20
2019-01-25T18:14:13.822Z,35.50
2019-01-25T18:16:53.873Z,40.27
2019-01-25T18:19:47.686Z,35.87
2019-01-25T18:22:24.495Z,26.10
2019-01-25T18:25:00.350Z,22.70
2019-01-25T18:27:37.742Z,22.53
2019-01-25T18:30:28.277Z,22.67
2019-01-25T18:33:25.461Z,23.00
2019-01-25T18:36:06.266Z,23.57
2019-01-25T18:39:03.309Z,23.23
2019-01-25T18:41:45.551Z,22.43
2019-01-25T18:44:25.746Z,20.33
2019-01-25T18:47:04.349Z,22.17
2019-01-25T18:49:45.332Z,20.77
2019-01-25T18:52:24.095Z,20.70
2019-01-25T18:55:01.109Z,19.13
2019-01-25T18:57:47.196Z,20.53
2019-01-25T19:00:46.353Z,18.83
2019-01-25T19:03:22.125Z,18.63
2019-01-25T19:05:59.172Z,22.97
2019-01-25T19:08:39.676Z,19.77
2019-01-25T19:11:22.025Z,18.17
2019-01-25T19:13:59.210Z,18.27
2019-01-25T19:16:34.082Z,17.13
2019-01-25T19:19:10.135Z,15.83
2019-01-25T19:21:46.083Z,17.07
2019-01-25T19:24:28.085Z,18.13
2019-01-25T19:27:21.111Z,14.83
2019-01-25T19:29:57.800Z,20.63
2019-01-25T19:32:32.386Z,18.80
2019-01-25T19:35:07.786Z,18.07
2019-01-25T19:37:47.739Z,20.33
2019-01-25T19:40:28.802Z,21.87
2019-01-25T19:43:08.618Z,19.97
2019-01-25T19:45:44.277Z,19.53
2019-01-25T19:48:28.190Z,21.90
2019-01-25T19:51:02.416Z,21.50
2019-01-25T19:53:39.469Z,22.33
2019-01-25T19:56:24.154Z,19.40
2019-01-25T19:59:00.073Z,18.77
2019-01-25T20:01:37.809Z,20.40
2019-01-25T20:04:14.000Z,19.77
2019-01-25T20:06:53.686Z,16.37
2019-01-25T20:09:43.558Z,18.77
2019-01-25T20:12:25.479Z,15.03
2019-01-25T20:15:03.423Z,21.83
2019-01-25T20:17:42.053Z,24.53
2019-01-25T20:20:22.238Z,25.53
2019-01-25T20:23:03.078Z,20.80
2019-01-25T20:25:41.143Z,21.57
2019-01-25T20:28:21.123Z,22.53
2019-01-25T20:31:02.038Z,23.40
2019-01-25T20:33:40.651Z,21.20
2019-01-25T20:36:15.549Z,22.47
2019-01-25T20:38:53.582Z,23.10
2019-01-25T20:41:27.335Z,21.50
2019-01-25T20:44:05.069Z,22.70
2019-01-25T20:46:46.619Z,20.50
2019-01-25T20:49:23.196Z,22.20
2019-01-25T20:52:01.150Z,20.60
2019-01-25T20:54:36.036Z,19.70
2019-01-25T20:57:17.947Z,20.67
2019-01-25T21:00:08.543Z,19.23
2019-01-25T21:03:36.264Z,20.93
2019-01-25T21:09:45.040Z,19.20
2019-01-25T21:12:21.909Z,17.17
2019-01-25T21:14:58.599Z,14.60
2019-01-25T21:17:43.436Z,16.57
2019-01-25T21:20:45.077Z,14.90
2019-01-25T21:23:28.465Z,14.53
2019-01-25T21:26:05.519Z,14.97
2019-01-25T21:28:42.147Z,13.70
2019-01-25T21:31:17.143Z,12.17
2019-01-25T21:33:53.612Z,11.27
2019-01-25T21:36:34.322Z,11.60
2019-01-25T21:39:12.008Z,10.77
2019-01-25T21:41:50.032Z,12.57
2019-01-25T21:44:27.403Z,10.53
2019-01-25T21:47:07.232Z,11.13
2019-01-25T21:49:47.607Z,11.73
2019-01-25T21:52:28.743Z,8.77
2019-01-25T21:55:16.223Z,10.43
2019-01-25T21:57:51.415Z,7.77
2019-01-25T22:00:28.905Z,8.77
2019-01-25T22:03:04.655Z,5.97
2019-01-25T22:05:40.256Z,5.37
2019-01-25T22:08:16.717Z,4.23
2019-01-25T22:10:55.799Z,5.33
2019-01-25T22:13:53.441Z,4.90
2019-01-25T22:16:32.914Z,5.27
2019-01-25T22:19:14.358Z,5.93
2019-01-25T22:22:26.968Z,6.00
2019-01-25T22:25:09.012Z,3.80
2019-01-25T22:27:50.657Z,3.40
2019-01-25T22:30:37.804Z,3.30
2019-01-25T22:33:19.966Z,3.50
2019-01-25T22:36:04.655Z,3.40
2019-01-25T22:38:41.934Z,3.80
2019-01-25T22:41:18.979Z,3.23
2019-01-25T22:43:57.057Z,3.63
2019-01-25T22:46:37.211Z,3.10
2019-01-25T22:49:11.596Z,3.60
2019-01-25T22:51:50.974Z,3.37
2019-01-25T22:54:29.086Z,3.90
2019-01-25T22:57:05.590Z,4.37
2019-01-25T22:59:52.059Z,4.33
2019-01-25T23:02:25.572Z,4.50
2019-01-25T23:05:31.325Z,4.70
2019-01-25T23:08:07.511Z,4.30
2019-01-25T23:10:42.615Z,4.83
2019-01-25T23:13:18.458Z,4.50
2019-01-25T23:15:53.579Z,4.83
2019-01-25T23:18:29.361Z,4.77
2019-01-25T23:21:31.704Z,5.10
2019-01-25T23:24:26.198Z,3.60
2019-01-25T23:27:04.692Z,5.37
2019-01-25T23:29:40.588Z,4.60
2019-01-25T23:32:16.132Z,3.33
2019-01-25T23:34:54.486Z,3.53
2019-01-25T23:37:29.479Z,4.40
2019-01-25T23:40:05.028Z,3.40
2019-01-25T23:42:41.397Z,3.90
2019-01-25T23:45:18.691Z,4.33
2019-01-25T23:47:53.469Z,3.70
2019-01-25T23:50:27.676Z,3.97
2019-01-25T23:53:02.699Z,3.37
2019-01-25T23:55:37.551Z,4.00
2019-01-25T23:58:14.739Z,3.83
